Gunnison, CO

8:28 AM MDT on October 01, 2014 (GMT -0600)
West Ruby Ave Weather | Change Station
CLOSE
Current Station
Personal Weather Station
Location: Gunnison, CO
Elevation: 7713 ft
Nearby Weather Stations
Active Advisory: Freeze Watch Active Notice: Public Information Statement

Elev 7713 ft 38.55 °N, 106.93 °W | Updated 3 minutes ago

Mostly Cloudy
Mostly Cloudy
36.1 °F
Feels Like 36 °F
N
0.0
Wind Variable Wind from WNW
Gusts 2.0 mph

Today
High -- | Low -- °F
--% Chance of Precip.
Yesterday
High -- | Low -- °F
Precip. -- in
7:03 AM 6:50 PM
Waxing Crescent, 48% visible
Pressure 30.07 in
Visibility 10.0 miles
Clouds Mostly Cloudy 7500 ft
Windchill 36 °F
Dew Point 22 °F
Humidity 55%
Rainfall 0.00 in
Snow Depth 0 in , 1 in , 1 in
UV 0.0 out of 12
Pollen 3.80 out of 12
Air Quality Not available.
Flu Activity Not available.
METAR KGUC 011355Z AUTO 00000KT 10SM BKN075 01/M01 A3007 RMK AO1 LTG DSNT NW

More Conditions Fewer Conditions

Pressure 30.07 in
Visibility 10.0 miles
Clouds Mostly Cloudy 7500 ft
Windchill 36 °F
Dew Point 22 °F
Humidity 55%
Rainfall 0.00 in
Snow Depth 0 in , 1 in , 1 in
UV 0.0 out of 12
Pollen 3.80 out of 12
Air Quality Not available.
Flu Activity Not available.
METAR KGUC 011355Z AUTO 00000KT 10SM BKN075 01/M01 A3007 RMK AO1 LTG DSNT NW

More Conditions Fewer Conditions

10-Day Weather Forecast

Almanac

Astronomy

Oct. 01, 2014 Rise Set
Actual Time 7:03 AM MDT 6:50 PM MDT
Civil Twilight 6:37 AM MDT 7:16 PM MDT
Nautical Twilight 6:06 AM MDT 7:47 PM MDT
Astronomical Twilight 5:35 AM MDT 8:18 PM MDT
Moon 2:03 PM MDT No Moon Set
Length of Visible Light 12h 39m
Length of Day
11h 46m
Tomorrow will be 2m 28s shorter.
Waxing Crescent, 48% of the Moon is Illuminated
Today
Waxing Crescent
Oct 1
First Quarter
Oct 8
Full
Oct 15
Last Quarter
Oct 23
New

Today's Extremes

State Highs State Lows

Community

WunderPhotos

Upload Photos

1,757,956 photos uploaded!

Nearby

Snow Depth

Station Depth Elevation
Buckskin Joe 0 in 11150 ft
Ute Creek 1 in 10650 ft
Middle Creek 1 in 11250 ft
Grayback 1 in 11620 ft
Scotch Creek 0 in 9100 ft

Earthquake Activity

City Distance Mag. Time & Date
No recent earthquake activity has been reported nearby.
Minimum magnitude displayed is 2.5.

Coastal Water Temperatures

Place Temperature
No Stations Reporting

Nearby Weather Stations